Connexion S'enregistrer

Connexion à votre compte

Identifiant
Mot de passe
Maintenir la connexion active sur ce site

Créer un compte

Pour valider ce formulaire, vous devez remplir tous les champs.
Nom
Identifiant
Mot de passe
Répétez le mot de passe
Adresse e-mail
Répétez l'adresse e-mail

 

affiche A3 V2

 

 

           Les inscriptions au BIA pour l'année 2018-2019 sont désormais possibles. Merci de télécharger le dossier et de le retourner par mail ou par courrier  avant le lundi 8 octobre.

Pour rappel, seuls 15 élèves peuvent être accueillis. L'inscription ne sera considérée valide qu'une fois le règlement effectué (voie postale ou directement au club).

Rentrée prévue le 17 octobre à 17h, directement au club.

 

 

BIA 2

 

                                                                                          

Nous contacter

 Téléphone : +33 (0)4 79 54 41 81

Coordonnées détaillées et accès : cliquez ici

 
LFLB °C
    Ferienhaus Ostsee
[source: ADDS]
METAR
LFLB 220530Z AUTO VRB02KT CAVOK 10/10 Q1024 NOSIG =
TAF LFLB 220500Z 2206/2306 VRB02KT CAVOK TEMPO 2208/2215 36010KT
TAF
TAF LFLB 220500Z 2206/2306 VRB02KT CAVOK TEMPO 2208/2215 36010KT =
SR / SS: 05:23 / 17:35 UTC (Lever/Coucher du soleil le 2018-09-22)
JSN Boot template designed by JoomlaShine.com